createdAt,value
2019-01-21T00:30:59.910Z,-6.40
2019-01-21T00:34:06.893Z,-6.30
2019-01-21T02:07:35.864Z,-6.30
2019-01-21T02:10:21.499Z,-6.50
2019-01-21T02:29:40.270Z,-6.90
2019-01-21T02:32:55.446Z,-6.80
2019-01-21T02:50:10.105Z,-6.80
2019-01-21T02:56:39.513Z,-6.90
2019-01-21T03:31:16.182Z,-7.10
2019-01-21T03:34:30.538Z,-7.00
2019-01-21T03:37:21.295Z,-7.00
2019-01-21T04:06:59.251Z,-6.80
2019-01-21T04:10:12.196Z,-6.90
2019-01-21T04:28:06.133Z,-7.10
2019-01-21T04:35:12.245Z,-7.40
2019-01-21T04:38:43.569Z,-7.40
2019-01-21T04:49:12.177Z,-7.60
2019-01-21T05:13:25.717Z,-7.40
2019-01-21T05:29:28.095Z,-7.40
2019-01-21T05:32:23.912Z,-7.30
2019-01-21T06:00:05.781Z,-7.60
2019-01-21T06:27:53.667Z,-7.40
2019-01-21T06:38:11.901Z,-7.40
2019-01-21T06:44:08.277Z,-7.50
2019-01-21T06:46:54.090Z,-7.60
2019-01-21T06:50:05.568Z,-7.50
2019-01-21T06:52:46.255Z,-7.50
2019-01-21T06:55:36.488Z,-7.50
2019-01-21T06:58:35.784Z,-7.60
2019-01-21T07:01:09.015Z,-7.60
2019-01-21T07:03:43.808Z,-7.60
2019-01-21T07:06:34.009Z,-7.60
2019-01-21T07:09:26.600Z,-7.80
2019-01-21T07:12:14.034Z,-7.80
2019-01-21T07:14:46.657Z,-7.80
2019-01-21T07:17:40.050Z,-7.70
2019-01-21T07:20:29.201Z,-7.70
2019-01-21T07:23:04.209Z,-7.60
2019-01-21T07:26:09.250Z,-7.50
2019-01-21T07:29:01.873Z,-7.50
2019-01-21T07:31:42.233Z,-7.50
2019-01-21T07:34:38.305Z,-7.50
2019-01-21T07:37:24.539Z,-7.40
2019-01-21T07:40:10.382Z,-7.40
2019-01-21T07:42:42.738Z,-7.50
2019-01-21T07:45:13.089Z,-7.30
2019-01-21T07:47:50.418Z,-7.20
2019-01-21T07:50:21.004Z,-7.20
2019-01-21T07:53:06.505Z,-7.30
2019-01-21T07:55:44.828Z,-7.40
2019-01-21T07:58:22.997Z,-7.40
2019-01-21T08:01:10.236Z,-7.30
2019-01-21T08:03:56.270Z,-7.30
2019-01-21T08:06:37.126Z,-7.30
2019-01-21T08:09:17.840Z,-7.30
2019-01-21T08:11:59.033Z,-7.20
2019-01-21T08:14:46.325Z,-7.20
2019-01-21T08:17:42.717Z,-7.10
2019-01-21T08:20:15.569Z,-6.90
2019-01-21T08:22:50.872Z,-6.80
2019-01-21T08:25:35.904Z,-6.70
2019-01-21T08:28:22.750Z,-6.60
2019-01-21T08:31:11.544Z,-6.50
2019-01-21T08:34:01.928Z,-6.30
2019-01-21T08:36:56.473Z,-6.40
2019-01-21T08:39:49.415Z,-6.40
2019-01-21T08:42:35.562Z,-6.20
2019-01-21T08:45:15.320Z,-6.00
2019-01-21T08:48:04.669Z,-6.00
2019-01-21T08:50:48.522Z,-5.80
2019-01-21T08:53:31.718Z,-5.60
2019-01-21T08:56:15.089Z,-5.70
2019-01-21T08:58:52.942Z,-5.60
2019-01-21T09:01:39.823Z,-5.60
2019-01-21T09:04:29.884Z,-5.40
2019-01-21T09:07:39.184Z,-5.40
2019-01-21T09:10:29.262Z,-5.30
2019-01-21T09:13:41.198Z,-5.00
2019-01-21T09:16:30.962Z,-4.90
2019-01-21T09:19:22.009Z,-4.70
2019-01-21T09:22:47.400Z,-4.70
2019-01-21T09:25:41.529Z,-4.50
2019-01-21T09:28:22.958Z,-4.40
2019-01-21T09:31:16.989Z,-4.10
2019-01-21T09:34:15.413Z,-4.00
2019-01-21T09:37:24.368Z,-3.90
2019-01-21T09:40:25.793Z,-3.80
2019-01-21T09:43:04.697Z,-3.60
2019-01-21T09:46:07.541Z,-3.50
2019-01-21T09:48:34.988Z,-3.30
2019-01-21T09:51:06.589Z,-3.10
2019-01-21T09:53:36.818Z,-3.00
2019-01-21T09:56:06.244Z,-2.90
2019-01-21T09:58:37.380Z,-2.80
2019-01-21T10:01:09.929Z,-2.70
2019-01-21T10:03:39.340Z,-2.60
2019-01-21T10:06:09.458Z,-2.50
2019-01-21T10:09:02.701Z,-2.50
2019-01-21T10:12:08.399Z,-2.40
2019-01-21T10:15:20.747Z,-2.40
2019-01-21T10:18:29.256Z,-2.30
2019-01-21T10:21:28.121Z,-2.10
2019-01-21T10:24:35.157Z,-2.20
2019-01-21T10:27:40.154Z,-2.20
2019-01-21T10:30:38.444Z,-2.00
2019-01-21T10:34:06.873Z,-1.90
2019-01-21T10:37:14.626Z,-1.80
2019-01-21T10:40:28.075Z,-1.70
2019-01-21T10:43:24.377Z,-1.70
2019-01-21T10:46:36.643Z,-1.60
2019-01-21T10:49:21.853Z,-1.70
2019-01-21T10:52:34.533Z,-1.70
2019-01-21T10:55:52.101Z,-1.60
2019-01-21T10:59:01.662Z,-1.60
2019-01-21T11:02:12.266Z,-1.50
2019-01-21T11:05:15.785Z,-1.40
2019-01-21T11:08:37.067Z,-1.50
2019-01-21T11:11:42.572Z,-1.50
2019-01-21T11:14:48.238Z,-1.40
2019-01-21T11:17:56.526Z,-1.30
2019-01-21T11:21:09.430Z,-1.10
2019-01-21T11:24:14.238Z,-1.20
2019-01-21T11:27:03.840Z,-1.10
2019-01-21T11:30:08.032Z,-0.80
2019-01-21T11:33:16.902Z,-0.70
2019-01-21T11:36:07.601Z,-0.70
2019-01-21T11:39:31.383Z,-0.50
2019-01-21T11:42:44.188Z,-0.50
2019-01-21T11:45:33.961Z,-0.20
2019-01-21T11:48:41.294Z,-0.40
2019-01-21T11:52:02.388Z,-0.30
2019-01-21T11:55:06.153Z,-0.20
2019-01-21T11:58:23.207Z,-0.20
2019-01-21T12:01:17.837Z,-0.10
2019-01-21T12:03:53.852Z,0.00
2019-01-21T12:06:35.843Z,0.10
2019-01-21T12:09:43.048Z,0.20
2019-01-21T12:12:52.645Z,0.30
2019-01-21T12:15:47.831Z,0.40
2019-01-21T12:18:52.223Z,0.50
2019-01-21T12:21:48.526Z,0.50
2019-01-21T12:24:39.013Z,0.50
2019-01-21T12:27:36.721Z,0.60
2019-01-21T12:30:48.944Z,1.00
2019-01-21T12:33:49.483Z,1.00
2019-01-21T12:36:58.244Z,1.00
2019-01-21T12:40:23.561Z,1.30
2019-01-21T12:43:25.395Z,1.60
2019-01-21T12:46:30.218Z,1.50
2019-01-21T12:49:39.558Z,1.80
2019-01-21T12:52:32.115Z,1.60
2019-01-21T12:55:20.856Z,1.90
2019-01-21T12:58:40.145Z,2.60
2019-01-21T13:01:54.906Z,3.20
2019-01-21T13:05:14.381Z,4.70
2019-01-21T13:08:09.924Z,6.10
2019-01-21T13:11:02.561Z,6.30
2019-01-21T13:13:55.335Z,7.00
2019-01-21T13:16:56.166Z,7.60
2019-01-21T13:20:30.609Z,7.40
2019-01-21T13:23:36.958Z,6.40
2019-01-21T13:26:41.128Z,6.90
2019-01-21T13:29:38.365Z,7.00
2019-01-21T13:32:27.192Z,7.10
2019-01-21T13:35:40.808Z,7.70
2019-01-21T13:38:52.008Z,7.40
2019-01-21T13:41:51.020Z,7.30
2019-01-21T13:45:04.130Z,6.90
2019-01-21T13:48:03.644Z,8.00
2019-01-21T13:51:28.584Z,7.90
2019-01-21T13:54:34.884Z,7.60
2019-01-21T13:57:18.219Z,7.50
2019-01-21T14:00:25.471Z,7.60
2019-01-21T14:03:28.060Z,8.70
2019-01-21T14:06:36.800Z,7.80
2019-01-21T14:09:35.157Z,7.40
2019-01-21T14:12:22.270Z,6.80
2019-01-21T14:15:38.572Z,7.10
2019-01-21T14:19:04.087Z,6.80
2019-01-21T14:22:23.157Z,7.60
2019-01-21T14:25:38.109Z,7.90
2019-01-21T14:28:42.685Z,7.80
2019-01-21T14:31:34.895Z,7.30
2019-01-21T14:34:29.466Z,7.20
2019-01-21T14:37:25.933Z,6.60
2019-01-21T14:40:23.824Z,5.90
2019-01-21T14:43:29.621Z,4.90
2019-01-21T14:46:38.763Z,3.80
2019-01-21T14:50:09.741Z,3.30
2019-01-21T14:53:28.805Z,2.70
2019-01-21T14:56:13.168Z,2.50
2019-01-21T14:59:14.375Z,2.30
2019-01-21T15:02:07.727Z,1.90
2019-01-21T15:05:07.917Z,1.40
2019-01-21T15:07:57.278Z,0.90
2019-01-21T15:11:06.535Z,0.60
2019-01-21T15:14:12.085Z,0.40
2019-01-21T15:16:58.844Z,0.10
2019-01-21T15:20:00.014Z,0.00
2019-01-21T15:23:04.866Z,-0.30
2019-01-21T15:26:22.684Z,-0.50
2019-01-21T15:29:43.507Z,-0.70
2019-01-21T15:32:52.209Z,-0.90
2019-01-21T15:36:08.701Z,-1.10
2019-01-21T15:39:22.001Z,-1.20
2019-01-21T15:42:39.864Z,-1.30
2019-01-21T15:45:53.877Z,-1.40
2019-01-21T15:48:42.277Z,-1.50
2019-01-21T15:51:31.428Z,-1.80
2019-01-21T15:54:55.967Z,-1.90
2019-01-21T15:57:44.918Z,-2.00
2019-01-21T16:00:50.730Z,-2.10
2019-01-21T16:03:44.594Z,-2.20
2019-01-21T16:06:36.324Z,-2.20
2019-01-21T16:09:42.768Z,-2.30
2019-01-21T16:13:03.389Z,-2.30
2019-01-21T16:16:06.747Z,-2.20
2019-01-21T16:18:44.086Z,-2.10
2019-01-21T16:21:46.556Z,-2.20
2019-01-21T16:24:54.785Z,-2.20
2019-01-21T16:28:22.865Z,-2.20
2019-01-21T16:31:28.137Z,-2.30
2019-01-21T16:34:31.995Z,-2.40
2019-01-21T16:37:46.376Z,-2.50
2019-01-21T16:40:54.150Z,-2.60
2019-01-21T16:43:23.153Z,-2.60
2019-01-21T16:45:52.341Z,-2.60
2019-01-21T16:48:21.249Z,-2.60
2019-01-21T16:50:50.251Z,-2.60
2019-01-21T16:53:20.474Z,-2.50
2019-01-21T16:55:49.610Z,-2.70
2019-01-21T16:58:18.829Z,-2.70
2019-01-21T17:00:47.731Z,-2.80
2019-01-21T17:03:16.629Z,-2.80
2019-01-21T17:05:45.583Z,-2.80
2019-01-21T17:08:20.539Z,-2.70
2019-01-21T17:10:54.126Z,-2.80
2019-01-21T17:13:20.861Z,-2.90
2019-01-21T17:15:51.655Z,-2.90
2019-01-21T17:18:20.713Z,-3.00
2019-01-21T17:20:49.650Z,-3.00
2019-01-21T17:23:18.823Z,-3.10
2019-01-21T17:25:47.891Z,-3.10
2019-01-21T17:28:16.929Z,-3.10
2019-01-21T17:30:46.144Z,-3.20
2019-01-21T17:33:15.838Z,-3.20
2019-01-21T17:35:44.821Z,-3.10
2019-01-21T17:38:13.840Z,-3.20
2019-01-21T17:40:42.847Z,-3.30
2019-01-21T17:43:14.849Z,-3.30
2019-01-21T17:45:43.878Z,-3.40
2019-01-21T17:48:14.712Z,-3.40
2019-01-21T17:50:43.958Z,-3.40
2019-01-21T17:53:18.563Z,-3.50
2019-01-21T17:55:50.463Z,-3.60
2019-01-21T17:58:19.493Z,-3.60
2019-01-21T18:00:51.186Z,-3.60
2019-01-21T18:03:20.197Z,-3.60
2019-01-21T18:05:49.253Z,-3.80
2019-01-21T18:08:20.904Z,-3.80
2019-01-21T18:10:50.280Z,-3.80
2019-01-21T18:13:19.350Z,-3.80
2019-01-21T18:15:50.725Z,-3.70
2019-01-21T18:18:25.737Z,-3.80
2019-01-21T18:21:03.839Z,-3.80
2019-01-21T18:23:32.996Z,-3.90
2019-01-21T18:26:02.938Z,-4.10
2019-01-21T18:28:31.880Z,-4.10
2019-01-21T18:31:00.898Z,-4.10
2019-01-21T18:33:29.989Z,-4.10
2019-01-21T18:36:04.832Z,-4.10
2019-01-21T18:38:33.826Z,-4.10
2019-01-21T18:41:11.822Z,-4.20
2019-01-21T18:43:40.954Z,-4.20
2019-01-21T18:46:10.079Z,-4.30
2019-01-21T18:48:39.174Z,-4.30
2019-01-21T18:51:08.150Z,-4.20
2019-01-21T18:53:37.389Z,-4.30
2019-01-21T18:56:06.597Z,-4.30
2019-01-21T18:58:38.322Z,-4.40
2019-01-21T19:01:07.820Z,-4.40
2019-01-21T19:03:36.720Z,-4.40
2019-01-21T19:06:08.646Z,-4.40
2019-01-21T19:08:37.469Z,-4.40
2019-01-21T19:11:09.352Z,-4.30
2019-01-21T19:13:38.180Z,-4.30
2019-01-21T19:16:07.099Z,-4.30
2019-01-21T19:18:36.021Z,-4.30
2019-01-21T19:21:07.826Z,-4.30
2019-01-21T19:23:37.026Z,-4.40
2019-01-21T19:26:10.213Z,-4.40
2019-01-21T19:28:39.421Z,-4.50
2019-01-21T19:31:11.498Z,-4.50
2019-01-21T19:33:40.520Z,-4.50
2019-01-21T19:36:12.324Z,-4.50
2019-01-21T19:38:41.273Z,-4.60
2019-01-21T19:41:10.389Z,-4.60
2019-01-21T19:43:39.831Z,-4.70
2019-01-21T19:46:09.192Z,-4.70
2019-01-21T19:48:41.753Z,-4.70
2019-01-21T19:51:11.219Z,-4.70
2019-01-21T19:53:43.229Z,-4.80
2019-01-21T19:56:12.605Z,-4.90
2019-01-21T19:58:42.793Z,-5.00
2019-01-21T20:01:12.219Z,-5.10
2019-01-21T20:03:43.181Z,-5.00
2019-01-21T20:06:12.581Z,-5.00
2019-01-21T20:08:41.477Z,-5.00
2019-01-21T20:11:09.660Z,-5.00
2019-01-21T20:13:38.875Z,-5.00
2019-01-21T20:16:08.816Z,-5.10
2019-01-21T20:18:37.177Z,-5.20
2019-01-21T20:21:05.301Z,-5.20
2019-01-21T20:23:34.470Z,-5.20
2019-01-21T20:26:03.664Z,-5.20
2019-01-21T20:28:36.465Z,-5.20
2019-01-21T20:31:05.796Z,-5.30
2019-01-21T20:33:37.607Z,-5.30
2019-01-21T20:36:09.122Z,-5.30
2019-01-21T20:38:39.932Z,-5.30
2019-01-21T20:41:09.855Z,-5.40
2019-01-21T20:43:39.601Z,-5.50
2019-01-21T20:46:12.563Z,-5.50
2019-01-21T20:48:42.140Z,-5.60
2019-01-21T20:51:10.327Z,-5.60
2019-01-21T20:53:38.700Z,-5.50
2019-01-21T20:56:08.273Z,-5.50
2019-01-21T20:58:36.689Z,-5.50
2019-01-21T21:01:04.761Z,-5.70
2019-01-21T21:03:33.016Z,-5.70
2019-01-21T21:06:04.563Z,-5.80
2019-01-21T21:08:33.830Z,-5.70
2019-01-21T21:11:02.132Z,-5.80
2019-01-21T21:13:30.669Z,-6.00
2019-01-21T21:15:59.765Z,-6.00
2019-01-21T21:18:28.215Z,-5.90
2019-01-21T21:20:56.820Z,-5.90
2019-01-21T21:23:30.966Z,-6.00
2019-01-21T21:25:58.932Z,-6.00
2019-01-21T21:28:33.193Z,-6.00
2019-01-21T21:31:01.143Z,-6.10
2019-01-21T21:33:29.095Z,-6.10
2019-01-21T21:35:57.298Z,-6.10
2019-01-21T21:38:28.209Z,-6.10
2019-01-21T21:40:57.732Z,-6.20
2019-01-21T21:43:25.658Z,-6.20
2019-01-21T21:45:53.647Z,-6.20
2019-01-21T21:48:21.544Z,-6.20
2019-01-21T21:50:52.313Z,-6.30
2019-01-21T21:53:20.230Z,-6.30
2019-01-21T21:55:48.492Z,-6.30
2019-01-21T21:58:17.648Z,-6.40
2019-01-21T22:00:45.606Z,-6.50
2019-01-21T22:03:13.597Z,-6.50
2019-01-21T22:05:41.549Z,-6.50
2019-01-21T22:08:09.441Z,-6.40
2019-01-21T22:10:40.202Z,-6.50
2019-01-21T22:13:08.177Z,-6.50
2019-01-21T22:15:36.116Z,-6.50
2019-01-21T22:18:07.225Z,-6.40
2019-01-21T22:20:35.208Z,-6.50
2019-01-21T22:23:03.574Z,-6.50
2019-01-21T22:25:31.826Z,-6.60
2019-01-21T22:27:59.820Z,-6.60
2019-01-21T22:30:27.972Z,-6.70
2019-01-21T22:32:56.213Z,-6.80
2019-01-21T22:35:26.961Z,-6.80
2019-01-21T22:37:55.178Z,-6.80
2019-01-21T22:40:26.535Z,-6.80
2019-01-21T22:42:54.439Z,-6.70
2019-01-21T22:45:22.432Z,-6.70
2019-01-21T22:47:50.801Z,-6.70
2019-01-21T22:50:25.008Z,-6.70
2019-01-21T22:52:53.141Z,-6.60
2019-01-21T22:55:21.150Z,-6.60
2019-01-21T22:57:49.128Z,-6.70
2019-01-21T23:00:43.559Z,-6.70
2019-01-21T23:03:14.838Z,-6.80
2019-01-21T23:05:42.802Z,-6.90
2019-01-21T23:08:16.805Z,-6.90
2019-01-21T23:10:44.810Z,-6.80
2019-01-21T23:13:12.994Z,-6.80
2019-01-21T23:15:40.970Z,-6.90
2019-01-21T23:18:08.968Z,-6.90
2019-01-21T23:20:39.704Z,-6.90
2019-01-21T23:23:10.979Z,-6.90
2019-01-21T23:25:39.200Z,-7.00
2019-01-21T23:28:10.285Z,-7.00
2019-01-21T23:30:38.276Z,-7.00
2019-01-21T23:33:06.232Z,-7.00
2019-01-21T23:35:34.503Z,-7.00
2019-01-21T23:38:02.722Z,-7.00
2019-01-21T23:40:30.886Z,-6.90
2019-01-21T23:43:02.160Z,-7.10
2019-01-21T23:45:30.377Z,-7.10
2019-01-21T23:47:58.320Z,-7.00
2019-01-21T23:50:26.681Z,-6.90
2019-01-21T23:52:56.256Z,-6.90
2019-01-21T23:55:24.494Z,-6.90
2019-01-21T23:57:52.453Z,-7.00
